Time;durP1;ratioP1;P1;durP2;ratioP2;P2;SDS_P1;SDS_P2;PMS_P1;PMS_P2;Temp;Humidity;BMP_temperature;BMP_pressure;BME280_temperature;BME280_humidity;BME280_pressure;Samples;Min_cycle;Max_cycle;Signal;HPM_P1;HPM_P2
2023/10/12 00:11:06;;;;;;;;;;;;;;;;;;;;;
2023/10/12 00:30:28;;;;;;;17.17;5.43;;;;;;;19.37;65.12;100391.91;4727993;30;20296;-74
2023/10/12 03:36:22;;;;;;;11.60;5.00;;;;;;;19.94;58.14;100438.88;4811361;28;20221;-75
2023/10/12 03:39:14;;;;;;;13.80;5.50;;;;;;;19.91;58.34;100440.94;4957498;28;20212;-74
2023/10/12 03:42:41;;;;;;;13.70;5.03;;;;;;;19.90;58.67;100441.97;5007107;28;20692;-74
2023/10/12 03:45:34;;;;;;;12.23;4.87;;;;;;;19.89;58.54;100444.88;5021648;28;20215;-74
2023/10/12 03:55:49;;;;;;;13.77;4.90;;;;;;;19.84;58.99;100431.22;5014179;28;20320;-75
2023/10/12 04:16:40;;;;;;;13.70;4.70;;;;;;;19.89;58.28;100429.56;4867965;29;20263;-75
2023/10/12 04:20:30;;;;;;;12.70;5.03;;;;;;;19.86;58.78;100432.69;4868971;29;20202;-75
2023/10/12 04:24:27;;;;;;;9.53;4.90;;;;;;;19.84;58.77;100429.38;4900787;28;20218;-74
2023/10/12 04:31:20;;;;;;;12.97;4.97;;;;;;;19.83;58.70;100443.84;4955503;28;20218;-74
2023/10/12 04:34:12;;;;;;;8.77;4.60;;;;;;;19.82;58.48;100449.44;4960709;28;20328;-75
2023/10/12 04:36:52;;;;;;;13.70;4.30;;;;;;;19.85;58.81;100443.66;4957457;28;20306;-75
2023/10/12 04:39:27;;;;;;;10.53;4.87;;;;;;;19.85;58.52;100431.03;4963526;28;20199;-74
2023/10/12 04:42:11;;;;;;;13.77;4.47;;;;;;;19.84;58.52;100432.06;4963367;28;20249;-75
2023/10/12 04:45:23;;;;;;;12.47;4.60;;;;;;;19.84;58.59;100440.13;5005859;28;20246;-78
2023/10/12 04:48:17;;;;;;;12.77;4.67;;;;;;;19.84;58.52;100450.06;5014527;28;20215;-74
2023/10/12 04:50:59;;;;;;;11.90;4.67;;;;;;;19.85;58.54;100435.56;5016972;28;21132;-74
2023/10/12 04:53:35;;;;;;;10.60;4.60;;;;;;;19.85;58.88;100441.78;5021142;28;20201;-74
2023/10/12 04:59:16;;;;;;;10.70;4.37;;;;;;;19.85;58.75;100432.88;5019113;28;20660;-75
2023/10/12 05:02:22;;;;;;;12.43;5.23;;;;;;;19.86;58.55;100435.38;5005010;28;20205;-74
2023/10/12 05:08:10;;;;;;;13.20;4.63;;;;;;;19.86;58.63;100454.22;5020780;28;20283;-75
2023/10/12 05:10:48;;;;;;;16.70;6.63;;;;;;;19.86;58.52;100448.00;5024394;28;20200;-75
2023/10/12 05:13:25;;;;;;;12.77;4.70;;;;;;;19.84;58.75;100453.59;5015900;28;20200;-75
2023/10/12 05:16:03;;;;;;;12.33;5.33;;;;;;;19.83;58.77;100459.16;5016155;28;20217;-74
2023/10/12 05:18:35;;;;;;;12.37;4.60;;;;;;;19.82;58.97;100444.88;5016317;28;20693;-75
2023/10/12 05:24:22;;;;;;;12.77;4.53;;;;;;;19.79;59.56;100447.97;5020246;28;20284;-74
2023/10/12 05:26:54;;;;;;;9.80;5.27;;;;;;;19.80;59.05;100456.88;5019704;28;20692;-74
2023/10/12 05:29:51;;;;;;;22.57;5.90;;;;;;;19.78;59.34;100461.66;5017065;28;20316;-75
2023/10/12 05:36:34;;;;;;;13.20;4.90;;;;;;;19.77;58.92;100450.09;4973219;28;20261;-74
2023/10/12 05:43:33;;;;;;;18.67;5.30;;;;;;;19.71;59.54;100483.19;4972869;28;20228;-75
2023/10/12 05:46:51;;;;;;;11.00;5.20;;;;;;;19.72;59.33;100492.91;4959293;28;20229;-75
2023/10/12 05:50:49;;;;;;;12.20;5.33;;;;;;;19.72;59.24;100490.22;4946539;28;20308;-75
2023/10/12 05:53:18;;;;;;;12.27;5.40;;;;;;;19.72;59.34;100479.44;4923360;28;20312;-75
2023/10/12 05:56:23;;;;;;;16.23;5.30;;;;;;;19.85;58.73;100457.94;4980829;28;20209;-74
2023/10/12 06:01:55;;;;;;;12.73;5.37;;;;;;;19.63;59.89;100480.69;5012026;28;20703;-73
2023/10/12 06:04:23;;;;;;;14.17;5.23;;;;;;;19.63;60.07;100475.31;5015169;28;20198;-73
2023/10/12 06:06:52;;;;;;;9.53;5.03;;;;;;;19.65;59.58;100462.50;5040951;23;20323;-70
2023/10/12 06:09:23;;;;;;;13.47;5.23;;;;;;;19.68;59.45;100440.56;5051710;28;20235;-68
2023/10/12 06:11:56;;;;;;;11.37;5.30;;;;;;;19.72;59.25;100425.66;5051291;28;20212;-69
2023/10/12 06:14:24;;;;;;;10.83;4.87;;;;;;;19.65;59.54;100440.97;5052066;28;20208;-67
2023/10/12 06:16:55;;;;;;;18.57;5.07;;;;;;;19.62;59.84;100510.47;5051465;28;20227;-68
2023/10/12 06:19:26;;;;;;;12.47;5.13;;;;;;;19.64;60.25;100532.63;5051931;28;20231;-68
2023/10/12 06:21:58;;;;;;;15.20;5.60;;;;;;;19.65;59.92;100521.66;5051493;28;20677;-68
2023/10/12 06:24:34;;;;;;;15.23;4.90;;;;;;;19.66;59.85;100534.09;5052250;28;20227;-70
2023/10/12 06:27:22;;;;;;;13.67;5.57;;;;;;;19.68;59.96;100548.16;5051826;28;20271;-69
2023/10/12 06:29:52;;;;;;;14.00;4.90;;;;;;;19.69;60.15;100540.94;5051664;28;20246;-68
2023/10/12 06:32:31;;;;;;;17.70;6.10;;;;;;;19.72;59.63;100540.50;5050523;28;20641;-73
2023/10/12 06:35:13;;;;;;;14.97;5.57;;;;;;;19.67;60.28;100546.50;5051237;28;20287;-74
2023/10/12 06:40:48;;;;;;;17.73;5.63;;;;;;;19.66;60.18;100546.72;5044331;28;20261;-73
2023/10/12 06:46:05;;;;;;;16.17;5.30;;;;;;;19.66;60.74;100555.59;5032928;28;20200;-76
2023/10/12 06:48:45;;;;;;;17.43;5.47;;;;;;;19.67;60.58;100551.88;5032419;28;20298;-69
2023/10/12 06:51:14;;;;;;;17.50;6.00;;;;;;;19.66;60.90;100550.22;5029639;28;20224;-74
2023/10/12 06:53:45;;;;;;;20.70;6.20;;;;;;;19.67;60.79;100546.50;5032905;28;20217;-66
2023/10/12 06:56:25;;;;;;;12.87;5.87;;;;;;;19.67;60.74;100551.06;5033908;28;21138;-67
2023/10/12 07:02:09;;;;;;;18.80;6.47;;;;;;;19.69;60.97;100543.63;5029007;28;20291;-68
2023/10/12 07:04:46;;;;;;;21.40;6.03;;;;;;;19.71;61.01;100536.97;5032665;28;20231;-66
2023/10/12 07:07:15;;;;;;;17.27;6.47;;;;;;;19.70;61.31;100548.78;5017551;28;20224;-67
2023/10/12 07:09:44;;;;;;;12.47;5.50;;;;;;;19.72;61.36;100565.53;5031412;28;20659;-67
2023/10/12 07:12:13;;;;;;;12.40;5.40;;;;;;;19.73;61.19;100571.75;5032566;28;20709;-66
2023/10/12 07:14:46;;;;;;;14.93;6.37;;;;;;;19.73;61.34;100571.75;5029534;28;20231;-66
2023/10/12 07:17:17;;;;;;;14.60;6.33;;;;;;;19.74;61.44;100568.03;5014187;28;20665;-68
2023/10/12 07:19:49;;;;;;;19.03;6.37;;;;;;;19.73;61.74;100561.00;5031832;28;21732;-65
2023/10/12 07:22:18;;;;;;;15.33;6.27;;;;;;;19.74;61.34;100555.41;5033496;28;20288;-67
2023/10/12 07:24:48;;;;;;;15.33;5.70;;;;;;;19.74;61.27;100568.88;5030830;28;21212;-68
2023/10/12 07:27:19;;;;;;;15.40;6.00;;;;;;;19.77;61.56;100581.91;5030687;28;20204;-67
2023/10/12 07:30:02;;;;;;;15.07;6.43;;;;;;;19.79;61.34;100582.50;5026547;28;20219;-67
2023/10/12 07:32:38;;;;;;;18.33;5.77;;;;;;;19.82;61.10;100574.03;5013113;28;20278;-67
2023/10/12 07:35:11;;;;;;;11.90;5.53;;;;;;;19.85;60.98;100570.94;5030392;28;20406;-65
2023/10/12 07:37:42;;;;;;;17.30;6.00;;;;;;;19.77;61.30;100576.53;5031679;28;20205;-67
2023/10/12 07:40:17;;;;;;;14.80;5.10;;;;;;;19.76;61.40;100582.94;5031663;28;20215;-65
2023/10/12 07:42:47;;;;;;;18.30;6.17;;;;;;;19.79;61.04;100587.09;5034724;28;20239;-67
2023/10/12 07:45:17;;;;;;;14.67;5.73;;;;;;;19.81;60.91;100577.75;5030306;28;20247;-68
2023/10/12 07:47:58;;;;;;;14.30;6.20;;;;;;;19.81;61.42;100576.94;5030559;28;20204;-66
2023/10/12 07:50:30;;;;;;;15.43;5.80;;;;;;;19.81;61.34;100568.84;5029885;28;20230;-66
2023/10/12 07:53:08;;;;;;;13.37;5.40;;;;;;;19.80;61.79;100559.13;5015990;28;20224;-66
2023/10/12 07:55:41;;;;;;;14.93;6.50;;;;;;;19.78;62.58;100559.34;5031548;28;20231;-67
2023/10/12 07:58:12;;;;;;;19.70;6.70;;;;;;;19.81;61.81;100561.63;5033633;28;20199;-68
2023/10/12 08:00:46;;;;;;;21.93;6.47;;;;;;;19.78;62.59;100563.91;5030443;28;20520;-67
2023/10/12 08:03:25;;;;;;;13.27;6.03;;;;;;;19.78;62.57;100575.50;5030250;28;20622;-68
2023/10/12 08:06:07;;;;;;;17.13;6.03;;;;;;;19.78;62.19;100564.75;5028217;28;20223;-66
2023/10/12 08:08:37;;;;;;;14.50;6.13;;;;;;;19.81;62.23;100547.34;5016713;28;20212;-66
2023/10/12 08:14:18;;;;;;;15.40;5.97;;;;;;;19.85;62.93;100580.88;5032249;28;20266;-67
2023/10/12 08:17:25;;;;;;;17.80;8.33;;;;;;;19.90;62.78;100595.38;5031436;28;20812;-66
2023/10/12 08:19:56;;;;;;;21.87;7.73;;;;;;;19.96;62.36;100582.97;5032007;28;20204;-66
2023/10/12 08:22:29;;;;;;;15.40;6.20;;;;;;;19.99;63.00;100611.31;5028819;28;20295;-68
2023/10/12 08:25:04;;;;;;;17.83;6.60;;;;;;;20.00;62.27;100615.66;5028563;28;20350;-67
2023/10/12 08:27:43;;;;;;;15.47;6.47;;;;;;;20.03;62.09;100618.78;5033325;28;20619;-66
2023/10/12 08:30:13;;;;;;;16.37;6.37;;;;;;;20.07;62.39;100606.56;5033478;28;20302;-68
2023/10/12 08:32:58;;;;;;;16.20;6.07;;;;;;;20.09;62.74;100626.03;5031576;28;20962;-67
2023/10/12 08:35:39;;;;;;;13.40;6.90;;;;;;;20.13;62.28;100608.44;5031622;28;20232;-66
2023/10/12 08:38:12;;;;;;;14.53;6.37;;;;;;;20.19;62.27;100604.09;5030639;28;20228;-66
2023/10/12 08:41:20;;;;;;;12.67;6.00;;;;;;;20.21;61.83;100612.78;5032931;28;21086;-67
2023/10/12 08:43:48;;;;;;;18.93;5.40;;;;;;;20.21;62.15;100607.41;5011222;28;20208;-66
2023/10/12 08:46:47;;;;;;;15.17;5.70;;;;;;;20.23;61.82;100614.22;5031067;28;20270;-67
2023/10/12 08:52:07;;;;;;;18.57;6.00;;;;;;;20.22;61.21;100609.06;5030282;28;20270;-68
2023/10/12 08:54:37;;;;;;;13.77;5.63;;;;;;;20.24;61.20;100606.97;5027907;28;20223;-66
2023/10/12 08:57:17;;;;;;;17.90;6.00;;;;;;;20.25;60.92;100598.69;5028368;28;20619;-67
2023/10/12 09:00:09;;;;;;;20.70;5.70;;;;;;;20.25;61.60;100597.84;5032353;28;20208;-69
2023/10/12 09:02:39;;;;;;;15.67;5.80;;;;;;;20.22;61.61;100601.81;5034955;28;20250;-67
2023/10/12 09:05:13;;;;;;;17.83;6.23;;;;;;;20.23;61.38;100616.06;5029568;28;20200;-66
2023/10/12 09:07:53;;;;;;;16.90;6.70;;;;;;;20.22;62.03;100612.59;5010328;28;20216;-67
2023/10/12 09:10:36;;;;;;;17.57;6.60;;;;;;;20.22;61.69;100620.66;5031241;28;20488;-69
2023/10/12 09:13:07;;;;;;;30.80;8.63;;;;;;;20.22;62.07;100614.44;5031910;28;20297;-67
2023/10/12 09:15:45;;;;;;;24.20;6.33;;;;;;;20.22;61.92;100617.97;5032305;28;20204;-68
2023/10/12 09:18:17;;;;;;;16.30;5.93;;;;;;;20.27;61.72;100617.34;5026284;28;20219;-69
2023/10/12 09:20:59;;;;;;;20.57;6.23;;;;;;;20.27;61.48;100602.00;5034183;28;20218;-68
2023/10/12 09:23:31;;;;;;;17.77;6.30;;;;;;;20.21;61.30;100599.31;5029731;28;20215;-67
2023/10/12 09:26:19;;;;;;;29.83;6.97;;;;;;;20.21;61.42;100597.47;5034491;28;20681;-67
2023/10/12 09:29:07;;;;;;;16.90;6.23;;;;;;;20.18;61.33;100587.09;5030406;28;20201;-68
2023/10/12 09:37:09;;;;;;;19.60;6.53;;;;;;;20.19;61.47;100609.47;5029576;28;20237;-67
2023/10/12 09:39:36;;;;;;;15.27;6.50;;;;;;;20.18;61.94;100605.13;5031683;28;21093;-67
2023/10/12 09:42:14;;;;;;;11.37;5.90;;;;;;;20.21;61.89;100612.78;5033386;28;20314;-66
2023/10/12 09:44:42;;;;;;;19.27;7.17;;;;;;;20.22;62.13;100600.97;5028388;28;20203;-66
2023/10/12 09:47:15;;;;;;;11.87;5.77;;;;;;;20.24;61.99;100601.56;5029597;28;20323;-67
2023/10/12 09:49:54;;;;;;;15.97;7.00;;;;;;;20.25;62.26;100605.94;5028182;28;20204;-69
2023/10/12 09:52:25;;;;;;;18.93;7.67;;;;;;;20.25;62.19;100612.16;5030762;28;21043;-67
2023/10/12 09:55:06;;;;;;;15.57;6.57;;;;;;;20.30;62.26;100625.00;5030535;28;20326;-66
2023/10/12 09:57:36;;;;;;;15.87;7.43;;;;;;;20.29;61.98;100629.56;5033347;28;20311;-68
2023/10/12 10:00:18;;;;;;;16.33;7.20;;;;;;;20.33;62.31;100627.25;5034192;28;20196;-67
2023/10/12 10:02:49;;;;;;;17.30;7.50;;;;;;;20.34;62.52;100631.66;5033308;28;20200;-68
2023/10/12 10:05:27;;;;;;;14.90;6.83;;;;;;;20.35;62.20;100629.78;5031439;28;20208;-64
2023/10/12 10:08:03;;;;;;;11.60;6.80;;;;;;;20.39;62.38;100623.78;5028390;28;20310;-68
2023/10/12 10:10:34;;;;;;;12.63;7.20;;;;;;;20.39;62.31;100637.25;5027933;28;20542;-67
2023/10/12 10:13:08;;;;;;;14.90;6.87;;;;;;;20.43;63.08;100640.34;5028770;28;20220;-69
2023/10/12 10:15:55;;;;;;;17.00;7.80;;;;;;;20.43;63.44;100632.25;5032086;28;20219;-69
2023/10/12 10:18:25;;;;;;;14.47;7.67;;;;;;;20.41;64.57;100629.78;5032568;28;20224;-67
2023/10/12 10:20:58;;;;;;;14.40;7.27;;;;;;;20.39;64.61;100631.88;5031673;28;20917;-67
2023/10/12 10:23:36;;;;;;;15.03;7.40;;;;;;;20.36;64.86;100632.28;5033132;28;20230;-66
2023/10/12 10:26:20;;;;;;;16.10;7.63;;;;;;;20.36;64.99;100643.03;5032613;28;20231;-66
2023/10/12 10:28:58;;;;;;;14.27;8.00;;;;;;;20.33;65.41;100629.94;5033565;28;20208;-68
2023/10/12 10:31:27;;;;;;;13.57;7.90;;;;;;;20.33;66.21;100631.81;5035249;28;20208;-69
2023/10/12 10:33:58;;;;;;;15.07;8.00;;;;;;;20.32;67.58;100639.06;5031852;28;20228;-69
2023/10/12 10:36:34;;;;;;;15.70;7.93;;;;;;;20.31;67.55;100637.44;5029313;28;20209;-66
2023/10/12 10:39:28;;;;;;;15.17;8.07;;;;;;;20.29;69.51;100643.03;5032075;28;20195;-66
2023/10/12 10:41:56;;;;;;;18.43;8.27;;;;;;;20.20;73.69;100632.66;5030269;28;20231;-68
2023/10/12 10:44:29;;;;;;;18.37;9.10;;;;;;;20.16;73.05;100631.41;5033915;28;20218;-67
2023/10/12 10:47:00;;;;;;;13.93;8.70;;;;;;;20.15;73.91;100640.50;5032412;28;20226;-68
2023/10/12 10:49:31;;;;;;;18.80;9.17;;;;;;;20.12;75.95;100630.19;5032061;28;20236;-68
2023/10/12 10:52:13;;;;;;;16.57;8.90;;;;;;;20.02;76.37;100629.75;5035318;28;20527;-66
2023/10/12 10:54:56;;;;;;;18.77;9.57;;;;;;;19.95;80.90;100629.75;5032453;28;20242;-68
2023/10/12 10:57:32;;;;;;;23.63;9.33;;;;;;;19.86;79.34;100621.06;5033793;28;20204;-69
2023/10/12 10:59:59;;;;;;;19.33;10.07;;;;;;;19.82;84.35;100602.81;5032838;28;20709;-69
2023/10/12 11:02:28;;;;;;;20.83;9.47;;;;;;;19.75;82.96;100594.72;5035563;28;20669;-65
2023/10/12 11:04:59;;;;;;;21.97;10.37;;;;;;;19.81;83.45;100587.69;5031367;28;20208;-69
2023/10/12 11:07:27;;;;;;;19.53;10.47;;;;;;;19.79;84.47;100568.25;5033883;28;20216;-69
2023/10/12 11:10:19;;;;;;;24.10;11.77;;;;;;;19.71;82.80;100568.44;5034270;28;20745;-67
2023/10/12 11:12:48;;;;;;;20.23;9.60;;;;;;;19.72;80.11;100562.03;5034816;28;20200;-68
2023/10/12 11:15:19;;;;;;;15.93;9.33;;;;;;;19.80;82.45;100553.75;5037055;28;20220;-66
2023/10/12 11:18:04;;;;;;;19.57;8.97;;;;;;;19.85;81.20;100532.44;5032540;28;20200;-68
2023/10/12 11:20:43;;;;;;;17.30;9.37;;;;;;;19.86;80.06;100529.56;5032213;28;20215;-68
2023/10/12 11:23:14;;;;;;;18.00;8.47;;;;;;;19.78;80.95;100520.88;5032568;28;20840;-68
2023/10/12 11:25:44;;;;;;;19.27;9.87;;;;;;;19.76;81.79;100529.13;5033094;28;20219;-68
2023/10/12 11:28:22;;;;;;;14.73;8.47;;;;;;;19.74;82.00;100525.81;5034231;28;20226;-69
2023/10/12 11:30:51;;;;;;;20.23;8.80;;;;;;;19.73;82.15;100534.91;5035846;28;20674;-66
2023/10/12 11:33:28;;;;;;;15.20;9.00;;;;;;;19.69;80.34;100560.59;5033831;28;20212;-68
2023/10/12 11:36:00;;;;;;;19.43;9.33;;;;;;;19.75;79.39;100567.84;5031744;28;20223;-69
2023/10/12 11:38:29;;;;;;;17.07;9.10;;;;;;;19.81;80.25;100569.69;5036243;28;20228;-68
2023/10/12 11:41:12;;;;;;;17.07;9.33;;;;;;;19.87;84.67;100557.28;5033289;28;20231;-71
2023/10/12 11:43:52;;;;;;;18.97;9.20;;;;;;;19.81;84.44;100553.53;5031654;28;20199;-66
2023/10/12 11:46:21;;;;;;;23.27;9.87;;;;;;;19.82;82.20;100555.22;5036423;28;20628;-68
2023/10/12 11:49:01;;;;;;;18.30;9.80;;;;;;;19.87;82.60;100560.81;5027873;28;20201;-67
2023/10/12 11:51:29;;;;;;;22.23;11.50;;;;;;;19.90;81.83;100573.84;5029278;28;20207;-68
2023/10/12 11:53:58;;;;;;;18.90;10.50;;;;;;;19.90;80.57;100579.22;5033342;28;20215;-67
2023/10/12 11:56:27;;;;;;;21.30;10.93;;;;;;;19.94;82.64;100579.66;5032768;28;20621;-65
2023/10/12 11:58:57;;;;;;;26.97;12.07;;;;;;;19.94;89.76;100563.50;5035146;28;20643;-67
2023/10/12 12:01:27;;;;;;;21.87;10.77;;;;;;;19.84;86.46;100568.47;5036358;28;20208;-66
2023/10/12 12:03:55;;;;;;;24.03;11.70;;;;;;;19.86;88.54;100571.78;5031040;28;20360;-69
2023/10/12 12:06:26;;;;;;;24.30;11.17;;;;;;;19.82;88.13;100570.53;5030671;28;20204;-66
2023/10/12 12:08:59;;;;;;;24.13;12.53;;;;;;;19.78;90.89;100569.28;5032948;28;20223;-64
2023/10/12 12:11:31;;;;;;;26.23;14.13;;;;;;;19.75;92.89;100562.44;5031145;28;20211;-68
2023/10/12 12:13:59;;;;;;;19.80;11.27;;;;;;;19.71;92.69;100555.81;5032108;28;20203;-70
2023/10/12 12:16:28;;;;;;;25.53;12.03;;;;;;;19.73;90.50;100547.53;5028511;28;20255;-67
2023/10/12 12:18:57;;;;;;;26.20;12.33;;;;;;;19.71;90.62;100542.34;5029317;28;20239;-69
2023/10/12 12:21:30;;;;;;;25.20;12.27;;;;;;;19.72;87.09;100544.00;5032862;28;20216;-69
2023/10/12 12:24:00;;;;;;;17.90;10.57;;;;;;;19.78;89.72;100537.84;5034411;28;20201;-68
2023/10/12 12:26:33;;;;;;;28.50;11.53;;;;;;;19.76;89.79;100512.16;5033082;28;20212;-67
2023/10/12 12:29:04;;;;;;;23.33;11.00;;;;;;;19.74;88.32;100501.59;5030481;28;20291;-68
2023/10/12 12:31:32;;;;;;;21.70;10.87;;;;;;;19.77;88.83;100493.13;5035096;28;20204;-68
2023/10/12 12:34:06;;;;;;;22.23;10.10;;;;;;;19.74;88.28;100493.53;5031094;28;20227;-69
2023/10/12 12:36:34;;;;;;;19.43;9.63;;;;;;;19.74;86.16;100498.91;5031799;28;20311;-70
2023/10/12 12:39:09;;;;;;;17.57;9.03;;;;;;;19.76;84.69;100490.63;5034688;28;20229;-68
2023/10/12 12:41:39;;;;;;;18.37;8.33;;;;;;;19.79;82.88;100485.66;5029678;28;20233;-68
2023/10/12 12:44:10;;;;;;;15.37;8.30;;;;;;;19.77;82.22;100471.59;5029084;28;20261;-67
2023/10/12 12:46:39;;;;;;;16.93;8.93;;;;;;;19.79;80.14;100472.19;5029217;28;20290;-67
2023/10/12 12:49:07;;;;;;;12.97;8.20;;;;;;;19.83;80.39;100478.84;5028108;28;20204;-67
2023/10/12 12:51:35;;;;;;;20.63;9.80;;;;;;;19.86;81.68;100483.81;5031962;28;20208;-68
2023/10/12 12:54:03;;;;;;;20.73;9.33;;;;;;;19.86;80.72;100481.13;5030519;28;20255;-69
2023/10/12 12:56:31;;;;;;;17.30;9.17;;;;;;;19.87;80.47;100476.56;5030040;28;20315;-68
2023/10/12 12:59:03;;;;;;;17.10;9.27;;;;;;;19.87;79.72;100480.09;5027141;28;20212;-70
2023/10/12 13:01:32;;;;;;;16.47;8.77;;;;;;;19.86;80.01;100485.66;5027838;28;20203;-68
2023/10/12 13:04:01;;;;;;;19.53;9.20;;;;;;;19.85;79.06;100484.00;5029763;28;21276;-66
2023/10/12 13:06:33;;;;;;;18.77;8.50;;;;;;;19.90;79.14;100487.72;5032260;28;20205;-67
2023/10/12 13:09:01;;;;;;;17.40;8.50;;;;;;;19.88;79.41;100483.56;5031192;28;20204;-68
2023/10/12 13:11:29;;;;;;;19.70;8.83;;;;;;;19.91;78.34;100477.78;5031512;28;20296;-66
2023/10/12 13:13:57;;;;;;;17.43;8.07;;;;;;;19.90;77.93;100481.50;5030610;28;20272;-67
2023/10/12 13:16:26;;;;;;;19.40;9.00;;;;;;;19.89;78.97;100486.06;5030838;28;20247;-67
2023/10/12 13:18:56;;;;;;;18.10;7.90;;;;;;;19.92;78.02;100482.97;5032071;28;20213;-66
2023/10/12 13:21:24;;;;;;;14.30;8.07;;;;;;;19.88;76.13;100484.41;5031739;28;20197;-68
2023/10/12 13:23:53;;;;;;;21.87;8.70;;;;;;;19.91;76.44;100484.00;5029837;28;20227;-67
2023/10/12 13:26:22;;;;;;;20.20;8.33;;;;;;;19.91;76.83;100485.88;5027296;28;20250;-66
2023/10/12 13:28:51;;;;;;;17.30;8.30;;;;;;;19.94;78.09;100492.69;5028685;28;20323;-67
2023/10/12 13:31:18;;;;;;;14.47;7.97;;;;;;;19.91;77.38;100492.06;5029800;28;20216;-67
2023/10/12 13:33:48;;;;;;;14.27;8.23;;;;;;;19.92;77.48;100491.03;5031932;28;20523;-66
2023/10/12 13:36:16;;;;;;;16.50;8.33;;;;;;;19.92;78.85;100490.22;5028832;28;20224;-68
2023/10/12 13:38:43;;;;;;;16.80;8.70;;;;;;;19.94;76.81;100492.69;5029718;28;20211;-66
2023/10/12 13:41:11;;;;;;;12.73;7.77;;;;;;;19.96;76.98;100487.94;5030362;28;20204;-68
2023/10/12 13:43:40;;;;;;;15.10;7.73;;;;;;;19.98;78.41;100488.53;5032499;28;20234;-66
2023/10/12 13:46:08;;;;;;;13.90;8.13;;;;;;;19.98;78.05;100489.38;5031659;28;20219;-66
2023/10/12 13:48:38;;;;;;;19.77;8.20;;;;;;;19.99;77.40;100495.56;5027980;28;20217;-65
2023/10/12 13:51:12;;;;;;;18.60;7.80;;;;;;;20.00;76.85;100497.25;5033287;28;20219;-65
2023/10/12 13:53:41;;;;;;;17.87;7.50;;;;;;;19.99;77.06;100499.09;5031431;28;20233;-65
2023/10/12 13:56:11;;;;;;;16.40;7.20;;;;;;;19.99;76.40;100495.56;5035110;28;20310;-68
2023/10/12 13:58:41;;;;;;;14.10;7.43;;;;;;;20.00;76.63;100491.84;5034444;28;20241;-65
2023/10/12 14:01:14;;;;;;;13.50;7.93;;;;;;;19.99;77.83;100485.63;5036237;28;20209;-68
2023/10/12 14:03:50;;;;;;;18.27;8.13;;;;;;;20.02;77.57;100484.41;5036380;28;20620;-68
2023/10/12 14:06:20;;;;;;;15.20;7.57;;;;;;;20.03;79.37;100475.31;5033115;28;20196;-68
2023/10/12 14:08:48;;;;;;;18.10;7.23;;;;;;;20.07;77.00;100480.03;5033259;28;20673;-67
2023/10/12 14:11:19;;;;;;;11.70;7.27;;;;;;;20.08;76.65;100480.88;5034060;28;20591;-66
2023/10/12 14:13:50;;;;;;;15.83;6.90;;;;;;;20.10;75.19;100476.09;5035414;28;20216;-68
2023/10/12 14:16:18;;;;;;;14.90;7.77;;;;;;;20.13;75.60;100481.09;5039305;28;20302;-70
2023/10/12 14:18:49;;;;;;;12.43;7.30;;;;;;;20.18;74.57;100478.56;5036346;28;20197;-72
2023/10/12 14:21:19;;;;;;;12.43;7.37;;;;;;;20.20;74.24;100471.94;5039792;28;20200;-71
2023/10/12 14:23:48;;;;;;;16.27;7.10;;;;;;;20.21;73.83;100475.47;5037105;28;20209;-68
2023/10/12 14:26:18;;;;;;;13.63;7.57;;;;;;;20.21;74.02;100481.69;5035336;28;20223;-69
2023/10/12 14:28:50;;;;;;;16.73;7.50;;;;;;;20.24;74.04;100477.72;5036155;28;20251;-69
2023/10/12 14:31:20;;;;;;;12.40;6.97;;;;;;;20.23;73.55;100471.50;5038450;28;20231;-72
2023/10/12 14:33:49;;;;;;;14.97;7.63;;;;;;;20.26;73.60;100475.66;5039653;28;20208;-73
2023/10/12 14:36:17;;;;;;;19.60;7.97;;;;;;;20.27;74.16;100472.75;5039926;28;20275;-71
2023/10/12 14:38:46;;;;;;;16.83;8.07;;;;;;;20.28;74.44;100481.66;5041736;28;20697;-73
2023/10/12 14:41:16;;;;;;;19.03;7.97;;;;;;;20.29;74.88;100475.25;5038272;28;20209;-70
2023/10/12 14:43:47;;;;;;;17.77;8.10;;;;;;;20.32;73.79;100468.63;5039100;28;20872;-69
2023/10/12 14:46:18;;;;;;;18.97;8.07;;;;;;;20.34;73.97;100467.38;5037096;28;20212;-71
2023/10/12 14:48:49;;;;;;;14.00;7.20;;;;;;;20.37;73.25;100460.75;5033987;28;20246;-71
2023/10/12 14:51:21;;;;;;;17.37;8.33;;;;;;;20.41;73.35;100465.47;5037503;28;20197;-68
2023/10/12 14:53:50;;;;;;;16.93;7.47;;;;;;;20.41;73.35;100456.56;5032630;28;20204;-70
2023/10/12 14:56:24;;;;;;;13.87;7.53;;;;;;;20.40;72.72;100465.72;5032717;28;20243;-68
2023/10/12 14:58:52;;;;;;;13.43;7.10;;;;;;;20.40;72.85;100466.56;5033250;28;20209;-69
2023/10/12 15:01:22;;;;;;;13.93;7.13;;;;;;;20.39;72.90;100454.13;5036181;28;20307;-73
2023/10/12 15:03:50;;;;;;;14.57;6.83;;;;;;;20.39;72.99;100455.97;5033167;28;20243;-71
2023/10/12 15:06:20;;;;;;;16.30;6.50;;;;;;;20.39;72.42;100451.44;5033905;28;20291;-71
2023/10/12 15:08:48;;;;;;;14.40;7.50;;;;;;;20.39;72.60;100453.28;5031615;28;20921;-70
2023/10/12 15:11:17;;;;;;;11.37;6.97;;;;;;;20.41;71.66;100449.31;5034956;28;20307;-70
2023/10/12 15:13:48;;;;;;;14.57;7.00;;;;;;;20.40;71.62;100444.19;5034526;28;20204;-72
2023/10/12 15:16:16;;;;;;;20.17;8.13;;;;;;;20.40;72.09;100444.19;5034106;28;20223;-70
2023/10/12 15:18:44;;;;;;;13.67;7.03;;;;;;;20.40;71.80;100445.00;5034773;28;20208;-70
2023/10/12 15:21:14;;;;;;;13.20;6.57;;;;;;;20.41;71.20;100460.09;5035286;28;20204;-71
2023/10/12 15:23:45;;;;;;;17.13;7.83;;;;;;;20.40;71.07;100465.72;5032611;28;20669;-70
2023/10/12 15:26:16;;;;;;;13.07;6.27;;;;;;;20.41;70.44;100457.41;5033088;28;20761;-73
2023/10/12 15:28:47;;;;;;;12.40;7.23;;;;;;;20.43;70.37;100470.66;5031654;28;21003;-72
2023/10/12 15:31:16;;;;;;;12.87;6.93;;;;;;;20.39;70.55;100470.28;5033558;28;20208;-68
2023/10/12 15:33:44;;;;;;;11.50;6.90;;;;;;;20.41;70.46;100470.88;5035458;28;20644;-69
2023/10/12 15:36:15;;;;;;;15.10;6.80;;;;;;;20.42;70.66;100469.00;5035421;28;20298;-71
2023/10/12 15:38:43;;;;;;;11.93;6.80;;;;;;;20.39;70.81;100470.28;5032537;28;20231;-70
2023/10/12 15:41:11;;;;;;;16.40;8.13;;;;;;;20.39;70.83;100469.44;5035074;28;20212;-69
2023/10/12 15:43:39;;;;;;;14.47;6.80;;;;;;;20.39;70.87;100467.59;5032678;28;20208;-68
2023/10/12 15:46:11;;;;;;;19.40;7.40;;;;;;;20.44;70.24;100462.38;5034844;28;20215;-72
2023/10/12 15:48:41;;;;;;;12.67;6.90;;;;;;;20.41;69.85;100468.19;5033576;28;20193;-70
2023/10/12 15:51:15;;;;;;;14.13;7.13;;;;;;;20.41;70.06;100472.75;5032987;28;20206;-68
2023/10/12 15:53:43;;;;;;;17.00;6.73;;;;;;;20.40;70.30;100481.88;5035428;28;20292;-68
2023/10/12 15:56:11;;;;;;;13.87;7.17;;;;;;;20.40;70.24;100480.03;5031134;28;20208;-68
2023/10/12 15:58:39;;;;;;;12.93;6.80;;;;;;;20.38;70.64;100487.47;5029447;28;20486;-68
2023/10/12 16:01:11;;;;;;;15.13;6.43;;;;;;;20.39;70.40;100489.13;5034105;28;20201;-67
2023/10/12 16:03:40;;;;;;;17.73;7.60;;;;;;;20.40;70.62;100490.78;5033198;28;20212;-68
2023/10/12 16:06:09;;;;;;;14.93;7.10;;;;;;;20.39;70.37;100488.31;5033363;28;20664;-68
2023/10/12 16:08:37;;;;;;;13.33;6.77;;;;;;;20.42;70.97;100493.25;5031541;28;20294;-66
2023/10/12 16:11:05;;;;;;;14.33;6.80;;;;;;;20.42;71.08;100502.16;5031641;28;20805;-67
2023/10/12 16:13:33;;;;;;;13.87;6.50;;;;;;;20.43;70.82;100501.13;5034276;28;20302;-71
2023/10/12 16:16:11;;;;;;;16.67;7.30;;;;;;;20.39;70.73;100510.69;5032431;28;20212;-73
2023/10/12 16:18:41;;;;;;;12.90;6.27;;;;;;;20.40;70.72;100498.88;5031927;28;20235;-72
2023/10/12 16:21:10;;;;;;;16.27;7.43;;;;;;;20.41;70.82;100503.19;5034171;28;20212;-74
2023/10/12 16:23:38;;;;;;;14.93;7.13;;;;;;;20.36;70.52;100505.69;5032033;28;20890;-68
2023/10/12 16:26:09;;;;;;;16.53;7.50;;;;;;;20.44;70.88;100489.31;5029791;28;20570;-70
2023/10/12 16:28:40;;;;;;;18.77;7.33;;;;;;;20.40;70.77;100504.25;5033687;28;20215;-69
2023/10/12 16:31:09;;;;;;;14.37;7.40;;;;;;;20.40;70.96;100504.25;5032105;28;20204;-73
2023/10/12 16:33:38;;;;;;;11.63;7.27;;;;;;;20.40;71.06;100508.81;5031213;28;20221;-71